Time;durP1;ratioP1;P1;durP2;ratioP2;P2;SDS_P1;SDS_P2;PMS_P1;PMS_P2;Temp;Humidity;BMP_temperature;BMP_pressure;BME280_temperature;BME280_humidity;BME280_pressure;Samples;Min_cycle;Max_cycle;Signal;HPM_P1;HPM_P2
2024/03/26 00:02:20;;;;;;;27.67;15.30;;;;;;;;;;808691;172;918411;-63
2024/03/26 00:04:46;;;;;;;32.17;18.00;;;;;;;;;;803186;170;637558;-65
2024/03/26 00:07:12;;;;;;;31.80;18.13;;;;;;;;;;815814;169;921909;-63
2024/03/26 00:09:38;;;;;;;34.60;18.60;;;;;;;;;;807647;169;921380;-63
2024/03/26 00:12:03;;;;;;;34.30;18.17;;;;;;;;;;808399;171;929189;-63
2024/03/26 00:14:29;;;;;;;29.73;18.10;;;;;;;;;;817234;169;1024701;-63
2024/03/26 00:16:55;;;;;;;31.30;17.80;;;;;;;;;;810508;170;894541;-64
2024/03/26 00:19:21;;;;;;;34.33;18.13;;;;;;;;;;809991;169;918818;-63
2024/03/26 00:21:47;;;;;;;32.57;19.30;;;;;;;;;;816638;169;918554;-63
2024/03/26 00:24:13;;;;;;;41.33;17.97;;;;;;;;;;806771;169;934059;-64
2024/03/26 00:26:39;;;;;;;32.28;18.62;;;;;;;;;;812230;169;916840;-63
2024/03/26 00:29:04;;;;;;;29.60;19.57;;;;;;;;;;810944;169;918217;-63
2024/03/26 00:31:33;;;;;;;40.33;21.50;;;;;;;;;;811587;170;816826;-64
2024/03/26 00:33:56;;;;;;;32.00;19.13;;;;;;;;;;796029;170;919291;-63
2024/03/26 00:36:22;;;;;;;27.27;17.10;;;;;;;;;;807128;170;921510;-67
2024/03/26 00:38:48;;;;;;;25.87;16.17;;;;;;;;;;816914;169;918284;-63
2024/03/26 00:41:14;;;;;;;27.50;15.60;;;;;;;;;;809531;169;911029;-63
2024/03/26 00:43:39;;;;;;;24.57;15.00;;;;;;;;;;809122;172;914805;-64
2024/03/26 00:46:05;;;;;;;24.17;16.30;;;;;;;;;;813387;169;919064;-63
2024/03/26 00:48:31;;;;;;;27.93;15.70;;;;;;;;;;809893;169;927583;-63
2024/03/26 00:50:57;;;;;;;28.77;16.33;;;;;;;;;;809497;169;920519;-63
2024/03/26 00:53:23;;;;;;;28.50;18.77;;;;;;;;;;814814;171;917635;-63
2024/03/26 00:55:49;;;;;;;35.80;17.57;;;;;;;;;;805927;169;918996;-63
2024/03/26 00:58:14;;;;;;;28.45;16.33;;;;;;;;;;807628;170;918538;-63
2024/03/26 01:00:40;;;;;;;35.57;20.07;;;;;;;;;;816908;171;757929;-63
2024/03/26 01:03:06;;;;;;;33.10;18.23;;;;;;;;;;808026;169;919093;-63
2024/03/26 01:05:32;;;;;;;28.37;17.23;;;;;;;;;;815106;169;917495;-63
2024/03/26 01:07:58;;;;;;;33.63;18.37;;;;;;;;;;806969;170;932024;-63
2024/03/26 01:10:24;;;;;;;26.30;15.80;;;;;;;;;;797891;172;850389;-64
2024/03/26 01:12:50;;;;;;;23.73;14.00;;;;;;;;;;804533;169;919125;-63
2024/03/26 01:15:15;;;;;;;28.33;17.27;;;;;;;;;;812603;169;914617;-63
2024/03/26 01:17:41;;;;;;;27.60;15.67;;;;;;;;;;813634;169;919434;-63
2024/03/26 01:20:07;;;;;;;34.40;16.40;;;;;;;;;;812074;169;919310;-63
2024/03/26 01:22:33;;;;;;;30.08;16.42;;;;;;;;;;808992;169;918485;-63
2024/03/26 01:24:59;;;;;;;31.10;16.17;;;;;;;;;;816086;170;918389;-63
2024/03/26 01:27:25;;;;;;;35.50;17.07;;;;;;;;;;808114;169;922077;-63
2024/03/26 01:29:51;;;;;;;27.23;18.00;;;;;;;;;;813115;169;1021258;-63
2024/03/26 01:32:16;;;;;;;20.20;13.10;;;;;;;;;;814988;171;919195;-63
2024/03/26 01:34:42;;;;;;;23.93;15.63;;;;;;;;;;807763;169;919092;-63
2024/03/26 01:37:08;;;;;;;24.27;14.50;;;;;;;;;;809601;169;918901;-64
2024/03/26 01:39:34;;;;;;;23.60;14.80;;;;;;;;;;813379;172;938338;-63
2024/03/26 01:42:00;;;;;;;26.97;15.83;;;;;;;;;;810662;169;917503;-62
2024/03/26 01:44:26;;;;;;;31.73;14.63;;;;;;;;;;807013;169;941695;-63
2024/03/26 01:46:51;;;;;;;25.93;14.40;;;;;;;;;;807336;169;1021281;-63
2024/03/26 01:49:17;;;;;;;38.87;16.53;;;;;;;;;;817215;169;915832;-62
2024/03/26 01:51:43;;;;;;;24.47;13.60;;;;;;;;;;807045;171;916156;-63
2024/03/26 01:54:09;;;;;;;20.10;13.03;;;;;;;;;;809575;169;921538;-62
2024/03/26 01:56:35;;;;;;;22.00;13.47;;;;;;;;;;816517;169;855158;-67
2024/03/26 01:59:01;;;;;;;25.48;14.38;;;;;;;;;;806311;169;920155;-63
2024/03/26 02:01:26;;;;;;;25.60;15.60;;;;;;;;;;808162;169;920097;-63
2024/03/26 02:03:52;;;;;;;27.70;15.83;;;;;;;;;;823008;169;921435;-62
2024/03/26 02:06:18;;;;;;;25.70;14.30;;;;;;;;;;809605;169;917604;-63
2024/03/26 02:08:44;;;;;;;22.27;11.70;;;;;;;;;;813505;169;918341;-65
2024/03/26 02:11:10;;;;;;;22.37;11.80;;;;;;;;;;818391;169;919537;-62
2024/03/26 02:13:36;;;;;;;20.20;11.93;;;;;;;;;;813102;169;918066;-64
2024/03/26 02:16:02;;;;;;;22.60;11.97;;;;;;;;;;810442;170;919542;-63
2024/03/26 02:18:27;;;;;;;19.20;11.67;;;;;;;;;;808881;169;1018788;-63
2024/03/26 02:20:53;;;;;;;19.20;10.33;;;;;;;;;;809664;170;916652;-63
2024/03/26 02:23:20;;;;;;;18.70;11.60;;;;;;;;;;812184;169;918822;-63
2024/03/26 02:25:46;;;;;;;14.50;9.17;;;;;;;;;;811706;169;919604;-63
2024/03/26 02:28:11;;;;;;;20.93;12.30;;;;;;;;;;818704;169;919017;-62
2024/03/26 02:30:37;;;;;;;20.30;12.10;;;;;;;;;;809297;169;918699;-62
2024/03/26 02:33:03;;;;;;;18.43;10.97;;;;;;;;;;811960;169;918368;-63
2024/03/26 02:35:29;;;;;;;20.20;11.60;;;;;;;;;;827293;169;917971;-63
2024/03/26 02:37:55;;;;;;;16.77;10.63;;;;;;;;;;809121;169;919640;-63
2024/03/26 02:40:21;;;;;;;21.77;9.93;;;;;;;;;;805444;170;917387;-63
2024/03/26 02:42:47;;;;;;;15.43;9.43;;;;;;;;;;814909;169;881338;-63
2024/03/26 02:45:12;;;;;;;14.85;10.23;;;;;;;;;;812427;171;815813;-63
2024/03/26 02:47:38;;;;;;;16.15;7.55;;;;;;;;;;813013;169;907479;-64
2024/03/26 02:50:05;;;;;;;16.07;9.60;;;;;;;;;;812142;171;919839;-64
2024/03/26 02:52:30;;;;;;;20.47;11.00;;;;;;;;;;808143;171;918707;-64
2024/03/26 02:54:56;;;;;;;21.03;10.53;;;;;;;;;;810194;169;919455;-63
2024/03/26 02:57:22;;;;;;;16.70;9.97;;;;;;;;;;810182;169;919131;-63
2024/03/26 02:59:48;;;;;;;12.70;8.47;;;;;;;;;;798245;173;920830;-63
2024/03/26 03:02:14;;;;;;;15.27;8.10;;;;;;;;;;808483;170;897557;-63
2024/03/26 03:04:40;;;;;;;16.12;8.82;;;;;;;;;;810699;169;920533;-63
2024/03/26 03:07:05;;;;;;;22.77;10.00;;;;;;;;;;820452;169;918969;-64
2024/03/26 03:09:31;;;;;;;19.80;10.00;;;;;;;;;;809345;169;919363;-63
2024/03/26 03:11:57;;;;;;;15.43;7.93;;;;;;;;;;809050;171;928237;-64
2024/03/26 03:14:23;;;;;;;17.63;11.50;;;;;;;;;;812473;169;939110;-65
2024/03/26 03:16:49;;;;;;;16.70;12.53;;;;;;;;;;804464;169;1061854;-63
2024/03/26 03:19:15;;;;;;;11.87;8.30;;;;;;;;;;809089;171;918474;-63
2024/03/26 03:21:40;;;;;;;16.33;9.30;;;;;;;;;;820535;169;714923;-64
2024/03/26 03:24:06;;;;;;;18.80;9.43;;;;;;;;;;814390;169;1118702;-63
2024/03/26 03:26:32;;;;;;;17.00;9.20;;;;;;;;;;808152;169;927623;-63
2024/03/26 03:28:58;;;;;;;17.07;9.47;;;;;;;;;;813701;169;919390;-62
2024/03/26 03:31:24;;;;;;;19.43;8.87;;;;;;;;;;812329;169;920206;-64
2024/03/26 03:33:50;;;;;;;19.37;10.30;;;;;;;;;;810026;169;919233;-63
2024/03/26 03:36:16;;;;;;;15.97;10.00;;;;;;;;;;808477;169;922302;-64
2024/03/26 03:38:41;;;;;;;14.43;9.20;;;;;;;;;;808711;172;917268;-63
2024/03/26 03:41:07;;;;;;;19.27;10.20;;;;;;;;;;810640;169;1021317;-64
2024/03/26 03:43:33;;;;;;;18.70;11.00;;;;;;;;;;810685;171;918802;-63
2024/03/26 03:45:59;;;;;;;15.97;9.40;;;;;;;;;;816129;169;919356;-63
2024/03/26 03:48:25;;;;;;;24.60;9.30;;;;;;;;;;808882;171;918873;-64
2024/03/26 03:50:51;;;;;;;15.40;7.77;;;;;;;;;;806351;169;926061;-64
2024/03/26 03:53:17;;;;;;;13.33;8.63;;;;;;;;;;816130;169;921155;-65
2024/03/26 03:55:42;;;;;;;20.70;10.30;;;;;;;;;;807237;169;916451;-63
2024/03/26 03:58:10;;;;;;;20.47;9.10;;;;;;;;;;806766;169;914493;-64
2024/03/26 04:00:34;;;;;;;14.50;8.57;;;;;;;;;;815171;169;919157;-64
2024/03/26 04:03:00;;;;;;;16.43;9.97;;;;;;;;;;809463;169;918855;-64
2024/03/26 04:05:26;;;;;;;19.48;9.85;;;;;;;;;;812321;169;915625;-64
2024/03/26 04:07:51;;;;;;;14.07;8.03;;;;;;;;;;816320;169;625283;-63
2024/03/26 04:10:17;;;;;;;16.17;8.47;;;;;;;;;;808978;169;919015;-63
2024/03/26 04:12:43;;;;;;;12.30;8.05;;;;;;;;;;810391;171;814395;-64
2024/03/26 04:15:10;;;;;;;14.63;8.67;;;;;;;;;;811128;169;845679;-64
2024/03/26 04:17:35;;;;;;;11.97;8.60;;;;;;;;;;802252;173;919571;-64
2024/03/26 04:20:01;;;;;;;13.70;7.53;;;;;;;;;;810210;170;1018684;-63
2024/03/26 04:22:26;;;;;;;14.07;9.03;;;;;;;;;;813378;169;917992;-64
2024/03/26 04:24:52;;;;;;;14.20;8.47;;;;;;;;;;811987;169;919083;-63
2024/03/26 04:27:18;;;;;;;14.53;8.10;;;;;;;;;;808300;170;912197;-64
2024/03/26 04:29:44;;;;;;;13.95;8.32;;;;;;;;;;804671;169;1178070;-63
2024/03/26 04:32:10;;;;;;;12.80;7.73;;;;;;;;;;814366;170;892903;-63
2024/03/26 04:34:36;;;;;;;12.40;8.40;;;;;;;;;;806968;169;929919;-63
2024/03/26 04:37:02;;;;;;;13.85;11.05;;;;;;;;;;811563;169;918966;-63
2024/03/26 04:39:28;;;;;;;12.80;7.80;;;;;;;;;;817961;169;815316;-63
2024/03/26 04:41:54;;;;;;;14.30;7.07;;;;;;;;;;811437;169;916487;-63
2024/03/26 04:44:19;;;;;;;17.30;8.43;;;;;;;;;;811377;169;916444;-63
2024/03/26 04:46:45;;;;;;;12.70;9.20;;;;;;;;;;815452;170;813630;-63
2024/03/26 04:49:11;;;;;;;10.90;7.17;;;;;;;;;;807984;169;920748;-63
2024/03/26 04:51:37;;;;;;;11.80;7.10;;;;;;;;;;808032;169;1123154;-63
2024/03/26 04:54:03;;;;;;;13.60;9.17;;;;;;;;;;807754;169;918588;-63
2024/03/26 04:56:29;;;;;;;12.40;7.67;;;;;;;;;;804398;171;836123;-63
2024/03/26 04:58:54;;;;;;;12.53;8.87;;;;;;;;;;808869;170;919471;-63
2024/03/26 05:01:21;;;;;;;13.57;8.77;;;;;;;;;;809665;169;921960;-63
2024/03/26 05:03:46;;;;;;;14.00;8.37;;;;;;;;;;818751;169;632401;-62
2024/03/26 05:06:12;;;;;;;15.07;9.27;;;;;;;;;;812635;169;853208;-63
2024/03/26 05:08:38;;;;;;;15.65;10.02;;;;;;;;;;801503;172;915700;-63
2024/03/26 05:11:04;;;;;;;13.23;8.53;;;;;;;;;;814215;170;716217;-63
2024/03/26 05:13:30;;;;;;;12.30;8.93;;;;;;;;;;807108;169;919254;-63
2024/03/26 05:15:57;;;;;;;15.60;9.67;;;;;;;;;;810218;169;916858;-63
2024/03/26 05:18:22;;;;;;;13.93;8.30;;;;;;;;;;818327;169;918484;-63
2024/03/26 05:20:47;;;;;;;10.97;7.17;;;;;;;;;;815269;169;657757;-63
2024/03/26 05:23:13;;;;;;;13.40;8.47;;;;;;;;;;813869;169;921410;-64
2024/03/26 05:25:39;;;;;;;13.43;8.00;;;;;;;;;;812360;169;918730;-63
2024/03/26 05:28:05;;;;;;;18.87;9.07;;;;;;;;;;805326;169;919465;-64
2024/03/26 05:30:31;;;;;;;15.77;9.40;;;;;;;;;;808245;169;917621;-64
2024/03/26 05:32:57;;;;;;;17.40;9.50;;;;;;;;;;803103;170;1021103;-63
2024/03/26 05:35:23;;;;;;;14.07;9.47;;;;;;;;;;802442;173;647083;-63
2024/03/26 05:37:48;;;;;;;17.10;8.30;;;;;;;;;;812531;170;653226;-64
2024/03/26 05:40:14;;;;;;;12.13;8.23;;;;;;;;;;810721;169;917464;-64
2024/03/26 05:42:40;;;;;;;18.00;10.87;;;;;;;;;;821322;169;629387;-64
2024/03/26 05:45:06;;;;;;;20.20;11.10;;;;;;;;;;810241;169;916663;-64
2024/03/26 05:47:32;;;;;;;16.57;10.20;;;;;;;;;;805939;171;921829;-64
2024/03/26 05:49:58;;;;;;;16.20;9.30;;;;;;;;;;806987;169;918911;-65
2024/03/26 05:52:24;;;;;;;14.60;8.70;;;;;;;;;;813571;169;804518;-64
2024/03/26 05:54:50;;;;;;;18.13;9.80;;;;;;;;;;813439;169;633799;-64
2024/03/26 05:57:16;;;;;;;15.27;10.40;;;;;;;;;;817540;170;627516;-65
2024/03/26 05:59:41;;;;;;;16.93;10.13;;;;;;;;;;809179;169;917425;-65
2024/03/26 06:02:07;;;;;;;17.43;10.70;;;;;;;;;;811221;169;917872;-65
2024/03/26 06:04:33;;;;;;;15.67;9.63;;;;;;;;;;811715;169;926587;-66
2024/03/26 06:06:59;;;;;;;14.05;9.07;;;;;;;;;;803591;173;922058;-65
2024/03/26 06:09:25;;;;;;;19.47;10.40;;;;;;;;;;815964;171;918500;-65
2024/03/26 06:11:51;;;;;;;18.80;11.37;;;;;;;;;;812210;171;909743;-64
2024/03/26 06:14:16;;;;;;;13.33;8.80;;;;;;;;;;815507;171;920855;-65
2024/03/26 06:16:42;;;;;;;16.43;9.70;;;;;;;;;;809767;169;920169;-65
2024/03/26 06:19:08;;;;;;;15.67;9.13;;;;;;;;;;806782;170;920105;-64
2024/03/26 06:21:34;;;;;;;15.70;10.30;;;;;;;;;;813487;169;917767;-65
2024/03/26 06:24:00;;;;;;;19.03;9.10;;;;;;;;;;809623;169;1016897;-65
2024/03/26 06:26:26;;;;;;;13.65;8.30;;;;;;;;;;809780;169;916621;-65
2024/03/26 06:28:51;;;;;;;17.00;9.30;;;;;;;;;;814799;169;914308;-65
2024/03/26 06:31:17;;;;;;;13.50;7.10;;;;;;;;;;810901;169;921879;-65
2024/03/26 06:33:43;;;;;;;10.63;7.13;;;;;;;;;;807957;170;918825;-65
2024/03/26 06:36:09;;;;;;;12.60;7.83;;;;;;;;;;812476;169;919567;-64
2024/03/26 06:38:35;;;;;;;11.90;4.70;;;;;;;;;;811689;169;919194;-64
2024/03/26 06:41:01;;;;;;;9.87;5.40;;;;;;;;;;811285;169;919745;-65
2024/03/26 06:43:27;;;;;;;8.00;5.27;;;;;;;;;;808527;171;919238;-66
2024/03/26 06:45:53;;;;;;;12.93;8.93;;;;;;;;;;803587;171;938722;-65
2024/03/26 06:48:19;;;;;;;13.43;7.10;;;;;;;;;;808080;170;919236;-65
2024/03/26 06:50:45;;;;;;;9.83;6.53;;;;;;;;;;811087;169;919486;-65
2024/03/26 06:53:11;;;;;;;10.80;7.40;;;;;;;;;;813197;169;918796;-65
2024/03/26 06:55:36;;;;;;;7.70;5.65;;;;;;;;;;808273;169;916343;-65
2024/03/26 06:58:02;;;;;;;7.95;5.25;;;;;;;;;;815059;169;917805;-65
2024/03/26 07:00:28;;;;;;;6.40;3.83;;;;;;;;;;814691;169;918513;-65
2024/03/26 07:02:57;;;;;;;10.20;5.10;;;;;;;;;;808362;169;921652;-65
2024/03/26 07:05:20;;;;;;;8.63;4.93;;;;;;;;;;810238;169;916611;-65
2024/03/26 07:07:46;;;;;;;10.73;5.30;;;;;;;;;;815797;169;918735;-66
2024/03/26 07:10:11;;;;;;;5.30;3.50;;;;;;;;;;806767;169;919410;-66
2024/03/26 07:12:37;;;;;;;8.73;4.50;;;;;;;;;;805892;169;1020804;-65
2024/03/26 07:15:06;;;;;;;8.60;4.10;;;;;;;;;;811057;170;918717;-66
2024/03/26 07:17:29;;;;;;;8.00;3.90;;;;;;;;;;810927;169;886197;-65
2024/03/26 07:19:55;;;;;;;6.13;4.43;;;;;;;;;;812864;169;918923;-66
2024/03/26 07:22:21;;;;;;;6.87;4.80;;;;;;;;;;807617;169;921156;-66
2024/03/26 07:24:47;;;;;;;11.03;4.33;;;;;;;;;;814053;169;918506;-65
2024/03/26 07:27:12;;;;;;;5.50;3.20;;;;;;;;;;810668;169;815081;-65
2024/03/26 07:29:40;;;;;;;7.97;4.40;;;;;;;;;;810649;169;919477;-66
2024/03/26 07:32:05;;;;;;;6.43;4.03;;;;;;;;;;812202;169;1021329;-66
2024/03/26 07:34:31;;;;;;;6.43;4.77;;;;;;;;;;811755;169;914564;-65
2024/03/26 07:36:57;;;;;;;7.93;4.57;;;;;;;;;;807689;169;919236;-66
2024/03/26 07:39:23;;;;;;;7.10;4.47;;;;;;;;;;814046;172;918518;-66
2024/03/26 07:41:48;;;;;;;5.10;2.40;;;;;;;;;;813056;169;916094;-66
2024/03/26 07:44:15;;;;;;;3.92;2.45;;;;;;;;;;810459;169;919245;-65
2024/03/26 07:46:42;;;;;;;4.40;2.00;;;;;;;;;;812253;169;919955;-66
2024/03/26 07:49:06;;;;;;;3.40;2.10;;;;;;;;;;807074;170;920818;-66
2024/03/26 07:51:32;;;;;;;2.70;1.80;;;;;;;;;;807100;169;920519;-66
2024/03/26 07:53:58;;;;;;;3.40;1.80;;;;;;;;;;810563;169;918714;-67
2024/03/26 07:56:24;;;;;;;3.37;1.73;;;;;;;;;;814419;170;918838;-66
2024/03/26 07:58:49;;;;;;;3.07;1.67;;;;;;;;;;807135;170;930309;-66
2024/03/26 08:01:15;;;;;;;3.00;1.60;;;;;;;;;;807806;171;920668;-66
2024/03/26 08:03:41;;;;;;;8.63;2.37;;;;;;;;;;809444;169;1008792;-66
2024/03/26 08:06:07;;;;;;;2.90;1.70;;;;;;;;;;812419;169;915125;-65
2024/03/26 08:08:33;;;;;;;3.35;2.15;;;;;;;;;;810738;169;920073;-66
2024/03/26 08:10:59;;;;;;;3.97;1.90;;;;;;;;;;815109;169;1016314;-66
2024/03/26 08:13:25;;;;;;;3.30;1.80;;;;;;;;;;810132;169;919371;-66
2024/03/26 08:15:51;;;;;;;3.80;2.20;;;;;;;;;;811679;171;917950;-66
2024/03/26 08:18:17;;;;;;;2.50;1.50;;;;;;;;;;816645;169;919400;-65
2024/03/26 08:20:43;;;;;;;3.17;1.60;;;;;;;;;;807905;169;922801;-66
2024/03/26 08:23:09;;;;;;;3.43;1.90;;;;;;;;;;808938;169;920343;-66
2024/03/26 08:25:35;;;;;;;4.77;2.43;;;;;;;;;;814132;169;919622;-66
2024/03/26 08:28:01;;;;;;;5.10;1.93;;;;;;;;;;811361;169;932901;-66
2024/03/26 08:30:27;;;;;;;3.93;2.10;;;;;;;;;;810355;169;921623;-66
2024/03/26 08:32:53;;;;;;;3.42;1.90;;;;;;;;;;809610;170;918786;-66
2024/03/26 08:35:19;;;;;;;4.27;1.73;;;;;;;;;;800393;173;920370;-66
2024/03/26 08:37:44;;;;;;;3.63;1.90;;;;;;;;;;813149;169;939977;-66
2024/03/26 08:40:11;;;;;;;3.13;1.77;;;;;;;;;;813802;169;920490;-66
2024/03/26 08:42:37;;;;;;;2.90;1.60;;;;;;;;;;812667;169;914158;-66
2024/03/26 08:45:03;;;;;;;4.40;1.97;;;;;;;;;;806036;172;914420;-65
2024/03/26 08:47:28;;;;;;;3.83;1.70;;;;;;;;;;810965;169;914553;-66
2024/03/26 08:49:54;;;;;;;6.47;1.50;;;;;;;;;;817716;169;707939;-65
2024/03/26 08:52:20;;;;;;;2.53;1.57;;;;;;;;;;812552;169;919785;-66
2024/03/26 08:54:46;;;;;;;2.93;1.40;;;;;;;;;;809209;170;917099;-65
2024/03/26 08:57:14;;;;;;;3.83;2.00;;;;;;;;;;813136;169;918912;-66
2024/03/26 08:59:38;;;;;;;4.93;2.23;;;;;;;;;;806102;170;919557;-65
2024/03/26 09:02:03;;;;;;;3.70;1.95;;;;;;;;;;812421;169;915493;-65
2024/03/26 09:04:30;;;;;;;6.12;1.77;;;;;;;;;;811354;171;919185;-66
2024/03/26 09:06:56;;;;;;;2.80;1.40;;;;;;;;;;800738;172;919096;-65
2024/03/26 09:09:22;;;;;;;2.97;1.30;;;;;;;;;;804195;170;918745;-65
2024/03/26 09:11:47;;;;;;;2.97;1.57;;;;;;;;;;808882;169;919229;-66
2024/03/26 09:14:13;;;;;;;2.83;1.37;;;;;;;;;;814981;169;919492;-66
2024/03/26 09:16:39;;;;;;;4.07;2.00;;;;;;;;;;807474;169;918395;-67
2024/03/26 09:19:05;;;;;;;2.70;1.60;;;;;;;;;;811641;169;917354;-67
2024/03/26 09:21:31;;;;;;;2.07;0.90;;;;;;;;;;816353;170;815533;-66
2024/03/26 09:23:57;;;;;;;3.07;1.67;;;;;;;;;;808597;169;918045;-67
2024/03/26 09:26:23;;;;;;;3.35;1.50;;;;;;;;;;805793;169;951600;-67
2024/03/26 09:28:48;;;;;;;3.50;1.60;;;;;;;;;;813887;169;919165;-68
2024/03/26 09:31:14;;;;;;;2.53;1.23;;;;;;;;;;815011;169;939932;-67
2024/03/26 09:33:40;;;;;;;4.67;1.40;;;;;;;;;;807942;172;830188;-67
2024/03/26 09:36:06;;;;;;;2.70;1.60;;;;;;;;;;814483;169;919432;-67
2024/03/26 09:38:32;;;;;;;2.50;1.30;;;;;;;;;;809646;169;913532;-67
2024/03/26 09:40:58;;;;;;;2.80;1.53;;;;;;;;;;809125;169;921146;-67
2024/03/26 09:43:23;;;;;;;4.13;1.87;;;;;;;;;;814780;169;816039;-67
2024/03/26 09:45:49;;;;;;;3.22;1.40;;;;;;;;;;815576;169;888932;-67
2024/03/26 09:48:15;;;;;;;3.50;1.40;;;;;;;;;;815645;169;826233;-67
2024/03/26 09:50:41;;;;;;;2.73;1.23;;;;;;;;;;815286;169;918531;-68
2024/03/26 09:53:09;;;;;;;3.03;1.67;;;;;;;;;;808843;169;920103;-67
2024/03/26 09:55:33;;;;;;;3.63;2.07;;;;;;;;;;810290;169;816558;-67
2024/03/26 09:57:59;;;;;;;3.20;1.50;;;;;;;;;;808903;169;919211;-66
2024/03/26 10:00:24;;;;;;;2.97;1.60;;;;;;;;;;815898;169;916977;-65
2024/03/26 10:02:50;;;;;;;2.60;1.30;;;;;;;;;;809001;171;919557;-66
2024/03/26 10:05:16;;;;;;;3.97;1.30;;;;;;;;;;813748;169;636414;-66
2024/03/26 10:07:44;;;;;;;15.77;2.13;;;;;;;;;;815702;169;919210;-65
2024/03/26 10:10:10;;;;;;;3.03;1.60;;;;;;;;;;813911;169;918572;-66
2024/03/26 10:12:35;;;;;;;3.87;1.77;;;;;;;;;;811097;169;919897;-66
2024/03/26 10:15:03;;;;;;;2.47;0.93;;;;;;;;;;810260;169;919520;-66
2024/03/26 10:17:27;;;;;;;2.35;1.25;;;;;;;;;;817350;169;816805;-66
2024/03/26 10:19:53;;;;;;;3.93;1.97;;;;;;;;;;801989;172;919106;-65
2024/03/26 10:22:19;;;;;;;2.78;1.52;;;;;;;;;;802962;172;1021765;-65
2024/03/26 10:24:45;;;;;;;2.97;1.45;;;;;;;;;;813061;170;917384;-65
2024/03/26 10:27:10;;;;;;;2.87;1.57;;;;;;;;;;810275;169;919037;-66
2024/03/26 10:29:36;;;;;;;6.93;1.40;;;;;;;;;;809425;171;919600;-66
2024/03/26 10:32:03;;;;;;;2.67;1.50;;;;;;;;;;821680;169;917346;-67
2024/03/26 10:34:28;;;;;;;4.07;1.27;;;;;;;;;;814010;169;919510;-66
2024/03/26 10:36:54;;;;;;;2.87;1.40;;;;;;;;;;814479;169;623505;-67
2024/03/26 10:39:20;;;;;;;3.50;1.53;;;;;;;;;;812967;169;623980;-66
2024/03/26 10:41:46;;;;;;;4.17;2.10;;;;;;;;;;806105;170;913992;-66
2024/03/26 10:44:11;;;;;;;4.37;1.85;;;;;;;;;;806897;170;919398;-66
2024/03/26 10:46:37;;;;;;;3.43;1.57;;;;;;;;;;814888;169;921564;-66
2024/03/26 10:49:05;;;;;;;3.35;1.42;;;;;;;;;;812593;170;917800;-66
2024/03/26 10:51:29;;;;;;;2.40;1.20;;;;;;;;;;807245;169;919565;-66
2024/03/26 10:53:56;;;;;;;2.73;1.47;;;;;;;;;;809482;169;918942;-66
2024/03/26 10:56:21;;;;;;;5.33;1.57;;;;;;;;;;814554;169;914091;-65
2024/03/26 10:58:47;;;;;;;2.80;1.40;;;;;;;;;;809286;169;1020924;-65
2024/03/26 11:01:13;;;;;;;3.10;1.43;;;;;;;;;;811585;169;918965;-66
2024/03/26 11:03:39;;;;;;;3.30;1.50;;;;;;;;;;813226;169;917208;-65
2024/03/26 11:06:05;;;;;;;2.42;1.42;;;;;;;;;;807136;169;921916;-68
2024/03/26 11:08:31;;;;;;;2.47;1.17;;;;;;;;;;809506;170;816944;-65
2024/03/26 11:11:01;;;;;;;3.30;1.40;;;;;;;;;;813699;169;918753;-65
2024/03/26 11:13:27;;;;;;;3.20;1.50;;;;;;;;;;812860;169;920461;-65
2024/03/26 11:15:53;;;;;;;3.90;1.80;;;;;;;;;;812015;169;920130;-65
2024/03/26 11:18:33;;;;;;;2.63;1.40;;;;;;;;;;813480;171;640379;-66
2024/03/26 11:21:02;;;;;;;2.50;1.20;;;;;;;;;;786305;176;869189;-64
2024/03/26 11:23:28;;;;;;;3.20;1.60;;;;;;;;;;787902;176;857602;-66
2024/03/26 11:25:54;;;;;;;2.80;1.37;;;;;;;;;;779997;176;919054;-66
2024/03/26 11:28:20;;;;;;;11.53;2.73;;;;;;;;;;818667;169;1019774;-66
2024/03/26 11:30:45;;;;;;;3.30;1.70;;;;;;;;;;812698;172;912215;-66
2024/03/26 11:33:11;;;;;;;10.13;1.87;;;;;;;;;;806875;170;920688;-65
2024/03/26 11:35:37;;;;;;;3.05;1.48;;;;;;;;;;805474;171;918651;-65
2024/03/26 11:38:03;;;;;;;3.33;1.43;;;;;;;;;;815551;169;870658;-65
2024/03/26 11:40:29;;;;;;;4.30;1.30;;;;;;;;;;808059;169;919180;-66
2024/03/26 11:42:55;;;;;;;2.75;1.27;;;;;;;;;;812166;168;917997;-67
2024/03/26 11:45:20;;;;;;;2.87;1.77;;;;;;;;;;824531;169;917918;-65
2024/03/26 11:47:46;;;;;;;4.00;1.80;;;;;;;;;;807628;172;643555;-65
2024/03/26 11:50:12;;;;;;;4.40;1.97;;;;;;;;;;806051;172;637596;-66
2024/03/26 11:52:38;;;;;;;5.25;1.73;;;;;;;;;;812736;169;917028;-67
2024/03/26 11:55:05;;;;;;;2.83;1.80;;;;;;;;;;784674;177;933048;-66
2024/03/26 11:57:31;;;;;;;3.77;1.40;;;;;;;;;;789904;173;920123;-66
2024/03/26 11:59:57;;;;;;;2.80;1.73;;;;;;;;;;784004;176;915100;-66
2024/03/26 12:02:23;;;;;;;5.87;1.60;;;;;;;;;;786297;176;909434;-65
2024/03/26 12:04:49;;;;;;;3.60;1.70;;;;;;;;;;784761;177;810456;-65
2024/03/26 12:07:15;;;;;;;3.57;1.93;;;;;;;;;;802274;169;922206;-66
2024/03/26 12:09:41;;;;;;;4.50;2.07;;;;;;;;;;812324;171;914517;-66
2024/03/26 12:12:07;;;;;;;4.10;2.03;;;;;;;;;;807912;169;917161;-66
2024/03/26 12:14:33;;;;;;;4.80;2.60;;;;;;;;;;805965;172;915346;-66
2024/03/26 12:16:59;;;;;;;3.37;2.17;;;;;;;;;;817962;169;634929;-65
2024/03/26 12:19:25;;;;;;;4.53;2.33;;;;;;;;;;810467;169;627131;-66
2024/03/26 12:21:50;;;;;;;4.00;1.93;;;;;;;;;;813043;169;916591;-66
2024/03/26 12:24:17;;;;;;;3.33;2.03;;;;;;;;;;809472;169;870191;-66
2024/03/26 12:26:42;;;;;;;3.03;1.80;;;;;;;;;;799858;174;915303;-66
2024/03/26 12:29:08;;;;;;;3.67;2.10;;;;;;;;;;808179;170;930689;-66
2024/03/26 12:31:34;;;;;;;5.50;2.03;;;;;;;;;;807858;171;918246;-66
2024/03/26 12:34:05;;;;;;;3.63;2.40;;;;;;;;;;815142;169;812422;-66
2024/03/26 12:36:31;;;;;;;4.50;2.10;;;;;;;;;;815331;169;635856;-66
2024/03/26 12:38:57;;;;;;;2.85;1.77;;;;;;;;;;809985;171;910507;-65
2024/03/26 12:41:23;;;;;;;5.00;2.20;;;;;;;;;;815252;169;909644;-66
2024/03/26 12:43:49;;;;;;;4.10;2.67;;;;;;;;;;806069;170;909819;-67
2024/03/26 12:46:15;;;;;;;4.73;2.97;;;;;;;;;;803079;170;920388;-67
2024/03/26 12:48:41;;;;;;;3.37;2.47;;;;;;;;;;808047;170;918847;-67
2024/03/26 12:51:06;;;;;;;4.20;2.50;;;;;;;;;;817659;169;677851;-66
2024/03/26 12:53:32;;;;;;;4.20;2.47;;;;;;;;;;812583;169;921037;-67
2024/03/26 12:55:58;;;;;;;3.28;2.17;;;;;;;;;;811962;169;919597;-66
2024/03/26 12:58:24;;;;;;;4.40;2.30;;;;;;;;;;817997;169;915515;-65
2024/03/26 13:00:50;;;;;;;8.37;2.97;;;;;;;;;;809014;169;918833;-67
2024/03/26 13:03:16;;;;;;;4.23;2.20;;;;;;;;;;808956;171;871500;-67
2024/03/26 13:05:41;;;;;;;4.40;2.70;;;;;;;;;;813218;171;858244;-66
2024/03/26 13:08:07;;;;;;;3.77;2.27;;;;;;;;;;812610;170;630621;-66
2024/03/26 13:10:33;;;;;;;3.50;2.37;;;;;;;;;;810623;169;633294;-66
2024/03/26 13:12:59;;;;;;;3.03;2.10;;;;;;;;;;812201;171;916096;-66
2024/03/26 13:15:25;;;;;;;4.60;2.93;;;;;;;;;;809532;169;918348;-66
2024/03/26 13:17:51;;;;;;;4.00;2.28;;;;;;;;;;814106;171;919769;-66
2024/03/26 13:20:16;;;;;;;6.20;3.10;;;;;;;;;;811102;169;815765;-67
2024/03/26 13:22:42;;;;;;;3.57;2.67;;;;;;;;;;808360;172;918801;-66
2024/03/26 13:25:09;;;;;;;6.37;3.20;;;;;;;;;;814247;169;919652;-66
2024/03/26 13:27:34;;;;;;;9.33;4.07;;;;;;;;;;808258;169;919112;-66
2024/03/26 13:30:00;;;;;;;6.40;3.30;;;;;;;;;;815766;169;917568;-66
2024/03/26 13:32:26;;;;;;;4.10;2.50;;;;;;;;;;810867;169;1020642;-66
2024/03/26 13:34:52;;;;;;;3.70;2.13;;;;;;;;;;810324;169;930019;-66
2024/03/26 13:37:17;;;;;;;6.07;3.23;;;;;;;;;;818891;169;918589;-67
2024/03/26 13:39:44;;;;;;;5.23;3.07;;;;;;;;;;815997;169;627157;-66
2024/03/26 13:42:09;;;;;;;5.07;3.20;;;;;;;;;;806397;169;919495;-65
2024/03/26 13:44:35;;;;;;;5.40;2.87;;;;;;;;;;814823;169;919409;-66
2024/03/26 13:47:01;;;;;;;6.22;3.28;;;;;;;;;;807620;170;919456;-66
2024/03/26 13:49:26;;;;;;;4.37;2.90;;;;;;;;;;810436;169;919022;-66
2024/03/26 13:51:52;;;;;;;4.47;2.83;;;;;;;;;;814085;169;919554;-66
2024/03/26 13:54:19;;;;;;;4.23;2.77;;;;;;;;;;811993;169;871839;-66
2024/03/26 13:56:44;;;;;;;5.33;2.93;;;;;;;;;;804363;170;912188;-66
2024/03/26 13:59:10;;;;;;;4.95;2.95;;;;;;;;;;808937;171;919772;-67
2024/03/26 14:01:36;;;;;;;7.37;2.40;;;;;;;;;;805450;172;917714;-66
2024/03/26 14:04:02;;;;;;;4.90;3.10;;;;;;;;;;795462;172;915752;-66
2024/03/26 14:06:28;;;;;;;5.87;3.40;;;;;;;;;;813640;169;922485;-67
2024/03/26 14:08:53;;;;;;;5.20;2.93;;;;;;;;;;814797;169;891767;-66
2024/03/26 14:11:19;;;;;;;4.90;2.87;;;;;;;;;;808253;169;1018469;-66